Baychester, New York
Current Conditions -  °F | °C
As of 9:51 PM on Wednesday 26 Nov 2014 (Local Time) from KLGA Reporting Station
Light Snow Light Snow  
Wind Chill: 24°   Ceiling: 1100
Heat Index: 35°   Visibility: 5mi
Dew Point: 33°   Wind: 18mph
Humidity: 92%   Direction: 330°NNW
Pressure: 29.8"   Gusts: 28mph
Location:  40.8683°N, 73.8469°W
Report Text: KLGA 270251Z 33016G24KT 5SM -RASN BR BKN011 BKN018 OVC031 02/01 A2980 RMK AO2 SLP089 P0002 60006 T00170006 53003
Loading
Personal Weather Stations






























Interactive Weather Map New forecast layout! Learn more

10-Day Weather Forecast

Advertisements
Track Severe Weather on mobile